sensor_id;sensor_type;location;lat;lon;timestamp;pressure;altitude;pressure_sealevel;temperature;humidity
22862;BME280;11598;50.652;6.172;2023-03-13T00:04:09;95413.97;;;6.94;100.00
22862;BME280;11598;50.652;6.172;2023-03-13T00:14:10;95396.50;;;6.87;100.00
22862;BME280;11598;50.652;6.172;2023-03-13T00:24:11;95358.94;;;6.83;100.00
22862;BME280;11598;50.652;6.172;2023-03-13T00:34:11;95334.28;;;6.78;100.00
22862;BME280;11598;50.652;6.172;2023-03-13T00:44:12;95321.97;;;6.82;100.00
22862;BME280;11598;50.652;6.172;2023-03-13T00:54:12;95303.41;;;6.88;100.00
22862;BME280;11598;50.652;6.172;2023-03-13T01:04:12;95291.31;;;7.00;100.00
22862;BME280;11598;50.652;6.172;2023-03-13T01:14:18;95287.53;;;7.15;100.00
22862;BME280;11598;50.652;6.172;2023-03-13T01:24:18;95265.75;;;7.29;100.00
22862;BME280;11598;50.652;6.172;2023-03-13T01:34:19;95238.34;;;7.38;100.00
22862;BME280;11598;50.652;6.172;2023-03-13T01:44:24;95232.09;;;7.40;100.00
22862;BME280;11598;50.652;6.172;2023-03-13T02:04:48;95182.88;;;7.42;100.00
22862;BME280;11598;50.652;6.172;2023-03-13T02:14:50;95194.84;;;7.43;100.00
22862;BME280;11598;50.652;6.172;2023-03-13T02:34:54;95174.63;;;7.48;100.00
22862;BME280;11598;50.652;6.172;2023-03-13T02:44:55;95169.53;;;7.58;100.00
22862;BME280;11598;50.652;6.172;2023-03-13T02:55:03;95142.09;;;7.67;100.00
22862;BME280;11598;50.652;6.172;2023-03-13T03:05:04;95106.88;;;7.75;100.00
22862;BME280;11598;50.652;6.172;2023-03-13T03:15:05;95107.19;;;7.82;100.00
22862;BME280;11598;50.652;6.172;2023-03-13T03:25:07;95108.03;;;7.92;100.00
22862;BME280;11598;50.652;6.172;2023-03-13T03:35:08;95094.06;;;8.04;100.00
22862;BME280;11598;50.652;6.172;2023-03-13T03:45:08;95088.75;;;8.16;100.00
22862;BME280;11598;50.652;6.172;2023-03-13T03:55:10;95057.19;;;8.32;100.00
22862;BME280;11598;50.652;6.172;2023-03-13T04:05:11;95070.75;;;8.45;100.00
22862;BME280;11598;50.652;6.172;2023-03-13T04:15:11;95070.75;;;8.55;100.00
22862;BME280;11598;50.652;6.172;2023-03-13T04:25:11;95094.16;;;8.63;100.00
22862;BME280;11598;50.652;6.172;2023-03-13T04:35:12;95064.19;;;8.70;100.00
22862;BME280;11598;50.652;6.172;2023-03-13T04:45:12;95040.34;;;8.76;100.00
22862;BME280;11598;50.652;6.172;2023-03-13T04:55:12;95034.75;;;8.81;100.00
22862;BME280;11598;50.652;6.172;2023-03-13T05:05:13;95029.97;;;8.86;100.00
22862;BME280;11598;50.652;6.172;2023-03-13T05:15:13;95016.75;;;8.89;100.00
22862;BME280;11598;50.652;6.172;2023-03-13T05:25:14;95000.94;;;8.92;100.00
22862;BME280;11598;50.652;6.172;2023-03-13T05:35:14;94986.59;;;8.98;100.00
22862;BME280;11598;50.652;6.172;2023-03-13T05:45:15;94983.75;;;9.01;100.00
22862;BME280;11598;50.652;6.172;2023-03-13T05:55:16;94980.06;;;9.03;100.00
22862;BME280;11598;50.652;6.172;2023-03-13T06:05:16;94991.75;;;9.07;100.00
22862;BME280;11598;50.652;6.172;2023-03-13T06:15:17;95006.06;;;9.12;100.00
22862;BME280;11598;50.652;6.172;2023-03-13T06:25:17;95001.13;;;9.18;100.00
22862;BME280;11598;50.652;6.172;2023-03-13T06:35:18;95017.19;;;9.22;100.00
22862;BME280;11598;50.652;6.172;2023-03-13T06:45:18;95010.94;;;9.24;100.00
22862;BME280;11598;50.652;6.172;2023-03-13T06:55:18;95023.91;;;9.24;100.00
22862;BME280;11598;50.652;6.172;2023-03-13T07:05:19;95026.63;;;9.23;100.00
22862;BME280;11598;50.652;6.172;2023-03-13T07:15:19;95010.91;;;9.34;100.00
22862;BME280;11598;50.652;6.172;2023-03-13T07:25:20;94996.44;;;9.69;100.00
22862;BME280;11598;50.652;6.172;2023-03-13T07:35:20;95016.59;;;9.75;100.00
22862;BME280;11598;50.652;6.172;2023-03-13T07:45:20;95015.78;;;9.74;100.00
22862;BME280;11598;50.652;6.172;2023-03-13T07:55:21;95001.47;;;9.70;100.00
22862;BME280;11598;50.652;6.172;2023-03-13T08:05:21;95010.72;;;9.73;100.00
22862;BME280;11598;50.652;6.172;2023-03-13T08:15:21;95026.88;;;9.67;100.00
22862;BME280;11598;50.652;6.172;2023-03-13T08:25:25;95013.03;;;9.48;100.00
22862;BME280;11598;50.652;6.172;2023-03-13T08:35:27;95017.59;;;9.37;100.00
22862;BME280;11598;50.652;6.172;2023-03-13T08:45:27;95004.91;;;9.34;100.00
22862;BME280;11598;50.652;6.172;2023-03-13T08:55:27;94997.38;;;9.40;100.00
22862;BME280;11598;50.652;6.172;2023-03-13T09:05:28;95014.56;;;9.41;100.00
22862;BME280;11598;50.652;6.172;2023-03-13T09:15:28;95008.66;;;9.49;100.00
22862;BME280;11598;50.652;6.172;2023-03-13T09:25:28;95006.63;;;9.52;100.00
22862;BME280;11598;50.652;6.172;2023-03-13T09:35:29;94989.03;;;9.74;100.00
22862;BME280;11598;50.652;6.172;2023-03-13T09:55:34;94982.41;;;10.07;100.00
22862;BME280;11598;50.652;6.172;2023-03-13T10:05:38;94973.13;;;10.23;100.00
22862;BME280;11598;50.652;6.172;2023-03-13T10:15:48;94972.69;;;10.27;100.00
22862;BME280;11598;50.652;6.172;2023-03-13T10:25:49;94962.31;;;10.27;100.00
22862;BME280;11598;50.652;6.172;2023-03-13T10:36:16;94942.91;;;10.49;100.00
22862;BME280;11598;50.652;6.172;2023-03-13T10:46:32;94941.13;;;10.76;100.00
22862;BME280;11598;50.652;6.172;2023-03-13T10:56:32;94939.69;;;10.82;100.00
22862;BME280;11598;50.652;6.172;2023-03-13T11:06:34;94921.88;;;10.87;100.00
22862;BME280;11598;50.652;6.172;2023-03-13T11:16:40;94893.69;;;11.00;100.00
22862;BME280;11598;50.652;6.172;2023-03-13T11:26:56;94862.75;;;11.23;100.00
22862;BME280;11598;50.652;6.172;2023-03-13T11:37:11;94862.88;;;11.13;100.00
22862;BME280;11598;50.652;6.172;2023-03-13T11:57:47;94826.84;;;11.18;100.00
22862;BME280;11598;50.652;6.172;2023-03-13T12:08:18;94805.38;;;11.16;100.00
22862;BME280;11598;50.652;6.172;2023-03-13T12:18:38;94800.50;;;11.21;100.00
22862;BME280;11598;50.652;6.172;2023-03-13T12:28:49;94779.13;;;11.36;100.00
22862;BME280;11598;50.652;6.172;2023-03-13T12:59:41;94733.78;;;11.38;100.00
22862;BME280;11598;50.652;6.172;2023-03-13T13:30:51;94693.31;;;11.36;100.00
22862;BME280;11598;50.652;6.172;2023-03-13T13:41:22;94663.09;;;11.27;100.00
22862;BME280;11598;50.652;6.172;2023-03-13T13:51:27;94643.25;;;11.58;100.00
22862;BME280;11598;50.652;6.172;2023-03-13T14:01:28;94637.50;;;11.79;100.00
22862;BME280;11598;50.652;6.172;2023-03-13T14:11:36;94617.56;;;11.47;100.00
22862;BME280;11598;50.652;6.172;2023-03-13T14:21:37;94606.50;;;11.53;100.00
22862;BME280;11598;50.652;6.172;2023-03-13T14:31:38;94596.41;;;11.58;100.00
22862;BME280;11598;50.652;6.172;2023-03-13T14:41:43;94537.25;;;11.60;100.00
22862;BME280;11598;50.652;6.172;2023-03-13T14:51:45;94560.03;;;11.50;100.00
22862;BME280;11598;50.652;6.172;2023-03-13T15:01:57;94557.59;;;11.40;99.35
22862;BME280;11598;50.652;6.172;2023-03-13T15:11:59;94545.94;;;11.28;98.88
22862;BME280;11598;50.652;6.172;2023-03-13T15:22:00;94515.59;;;11.12;98.86
22862;BME280;11598;50.652;6.172;2023-03-13T15:32:00;94499.38;;;11.10;97.96
22862;BME280;11598;50.652;6.172;2023-03-13T15:42:03;94475.13;;;11.10;96.00
22862;BME280;11598;50.652;6.172;2023-03-13T15:52:10;94445.50;;;10.79;96.10
22862;BME280;11598;50.652;6.172;2023-03-13T16:02:14;94399.47;;;10.49;95.81
22862;BME280;11598;50.652;6.172;2023-03-13T16:12:15;94406.88;;;10.19;93.81
22862;BME280;11598;50.652;6.172;2023-03-13T16:22:15;94408.00;;;9.92;92.63
22862;BME280;11598;50.652;6.172;2023-03-13T16:32:16;94411.69;;;9.73;93.48
22862;BME280;11598;50.652;6.172;2023-03-13T16:42:19;94405.84;;;9.71;94.56
22862;BME280;11598;50.652;6.172;2023-03-13T16:52:19;94371.50;;;9.77;94.78
22862;BME280;11598;50.652;6.172;2023-03-13T17:02:20;94371.19;;;9.72;95.21
22862;BME280;11598;50.652;6.172;2023-03-13T17:12:20;94356.25;;;9.66;95.92
22862;BME280;11598;50.652;6.172;2023-03-13T17:22:20;94326.09;;;9.57;96.67
22862;BME280;11598;50.652;6.172;2023-03-13T17:32:21;94325.44;;;9.46;96.98
22862;BME280;11598;50.652;6.172;2023-03-13T17:42:24;94342.25;;;9.26;97.59
22862;BME280;11598;50.652;6.172;2023-03-13T17:52:25;94349.84;;;9.19;97.86
22862;BME280;11598;50.652;6.172;2023-03-13T18:02:25;94339.66;;;9.18;98.08
22862;BME280;11598;50.652;6.172;2023-03-13T18:12:26;94344.16;;;9.16;98.73
22862;BME280;11598;50.652;6.172;2023-03-13T18:22:26;94344.63;;;9.11;99.54
22862;BME280;11598;50.652;6.172;2023-03-13T18:32:27;94354.50;;;9.07;100.00
22862;BME280;11598;50.652;6.172;2023-03-13T18:42:27;94337.34;;;9.06;100.00
22862;BME280;11598;50.652;6.172;2023-03-13T18:52:27;94310.25;;;8.93;100.00
22862;BME280;11598;50.652;6.172;2023-03-13T19:02:28;94303.56;;;8.74;100.00
22862;BME280;11598;50.652;6.172;2023-03-13T19:12:28;94265.78;;;8.55;100.00
22862;BME280;11598;50.652;6.172;2023-03-13T19:22:28;94247.28;;;8.41;100.00
22862;BME280;11598;50.652;6.172;2023-03-13T19:32:29;94231.81;;;8.23;100.00
22862;BME280;11598;50.652;6.172;2023-03-13T19:42:29;94237.56;;;8.09;100.00
22862;BME280;11598;50.652;6.172;2023-03-13T19:52:30;94255.41;;;7.94;100.00
22862;BME280;11598;50.652;6.172;2023-03-13T20:02:30;94250.97;;;7.78;100.00
22862;BME280;11598;50.652;6.172;2023-03-13T20:12:30;94233.91;;;7.68;100.00
22862;BME280;11598;50.652;6.172;2023-03-13T20:22:31;94231.88;;;7.53;100.00
22862;BME280;11598;50.652;6.172;2023-03-13T20:32:31;94240.53;;;7.44;100.00
22862;BME280;11598;50.652;6.172;2023-03-13T20:42:31;94244.31;;;7.32;100.00
22862;BME280;11598;50.652;6.172;2023-03-13T20:52:32;94270.22;;;7.22;100.00
22862;BME280;11598;50.652;6.172;2023-03-13T21:02:32;94286.59;;;7.13;100.00
22862;BME280;11598;50.652;6.172;2023-03-13T21:12:32;94284.94;;;7.12;100.00
22862;BME280;11598;50.652;6.172;2023-03-13T21:22:35;94257.56;;;7.19;100.00
22862;BME280;11598;50.652;6.172;2023-03-13T21:32:36;94229.03;;;7.20;100.00
22862;BME280;11598;50.652;6.172;2023-03-13T21:42:37;94238.03;;;7.16;100.00
22862;BME280;11598;50.652;6.172;2023-03-13T21:52:38;94248.22;;;7.18;100.00
22862;BME280;11598;50.652;6.172;2023-03-13T22:02:40;94239.72;;;7.26;100.00
22862;BME280;11598;50.652;6.172;2023-03-13T22:12:40;94243.28;;;7.25;100.00
22862;BME280;11598;50.652;6.172;2023-03-13T22:22:41;94238.16;;;7.33;100.00
22862;BME280;11598;50.652;6.172;2023-03-13T22:32:41;94229.59;;;7.32;100.00
22862;BME280;11598;50.652;6.172;2023-03-13T22:42:42;94187.75;;;7.29;100.00
22862;BME280;11598;50.652;6.172;2023-03-13T22:52:42;94176.19;;;7.33;100.00
22862;BME280;11598;50.652;6.172;2023-03-13T23:02:42;94260.03;;;7.38;100.00
22862;BME280;11598;50.652;6.172;2023-03-13T23:12:43;94194.78;;;7.62;100.00
22862;BME280;11598;50.652;6.172;2023-03-13T23:22:45;94209.50;;;7.62;100.00
22862;BME280;11598;50.652;6.172;2023-03-13T23:32:46;94211.50;;;7.50;100.00
22862;BME280;11598;50.652;6.172;2023-03-13T23:42:50;94194.91;;;7.53;100.00
22862;BME280;11598;50.652;6.172;2023-03-13T23:52:50;94140.31;;;7.56;99.83
